sensor_id;sensor_type;location;lat;lon;timestamp;pressure;altitude;pressure_sealevel;temperature;humidity
42519;BME280;28147;47.520;18.920;2023-09-12T00:00:06;98274.19;;;24.60;43.58
42519;BME280;28147;47.520;18.920;2023-09-12T00:02:31;98268.25;;;24.58;43.94
42519;BME280;28147;47.520;18.920;2023-09-12T00:04:57;98273.22;;;24.85;42.48
42519;BME280;28147;47.520;18.920;2023-09-12T00:07:22;98278.09;;;25.00;42.03
42519;BME280;28147;47.520;18.920;2023-09-12T00:09:47;98272.47;;;24.76;42.97
42519;BME280;28147;47.520;18.920;2023-09-12T00:12:16;98270.22;;;24.78;43.14
42519;BME280;28147;47.520;18.920;2023-09-12T00:14:42;98268.75;;;24.60;43.64
42519;BME280;28147;47.520;18.920;2023-09-12T00:17:08;98268.78;;;24.51;44.17
42519;BME280;28147;47.520;18.920;2023-09-12T00:19:34;98267.97;;;24.50;44.29
42519;BME280;28147;47.520;18.920;2023-09-12T00:22:00;98264.44;;;24.50;43.96
42519;BME280;28147;47.520;18.920;2023-09-12T00:24:25;98262.38;;;24.47;44.22
42519;BME280;28147;47.520;18.920;2023-09-12T00:26:51;98253.56;;;24.50;44.03
42519;BME280;28147;47.520;18.920;2023-09-12T00:29:16;98265.72;;;24.52;43.95
42519;BME280;28147;47.520;18.920;2023-09-12T00:31:41;98271.16;;;24.52;43.99
42519;BME280;28147;47.520;18.920;2023-09-12T00:34:07;98268.19;;;24.37;43.91
42519;BME280;28147;47.520;18.920;2023-09-12T00:36:32;98276.91;;;24.13;44.35
42519;BME280;28147;47.520;18.920;2023-09-12T00:38:58;98272.00;;;24.36;43.91
42519;BME280;28147;47.520;18.920;2023-09-12T00:41:23;98261.59;;;24.46;43.99
42519;BME280;28147;47.520;18.920;2023-09-12T00:43:49;98267.41;;;24.27;44.74
42519;BME280;28147;47.520;18.920;2023-09-12T00:46:18;98267.41;;;24.27;44.44
42519;BME280;28147;47.520;18.920;2023-09-12T00:48:44;98263.59;;;24.28;44.49
42519;BME280;28147;47.520;18.920;2023-09-12T00:51:10;98266.13;;;24.34;44.33
42519;BME280;28147;47.520;18.920;2023-09-12T00:53:35;98264.53;;;24.24;44.50
42519;BME280;28147;47.520;18.920;2023-09-12T00:56:01;98254.94;;;24.26;44.66
42519;BME280;28147;47.520;18.920;2023-09-12T00:58:27;98263.28;;;24.21;44.73
42519;BME280;28147;47.520;18.920;2023-09-12T01:00:53;98262.13;;;24.31;44.86
42519;BME280;28147;47.520;18.920;2023-09-12T01:03:19;98266.91;;;24.34;44.47
42519;BME280;28147;47.520;18.920;2023-09-12T01:05:44;98262.50;;;24.21;45.09
42519;BME280;28147;47.520;18.920;2023-09-12T01:08:11;98251.75;;;24.24;44.53
42519;BME280;28147;47.520;18.920;2023-09-12T01:10:37;98254.34;;;24.50;43.08
42519;BME280;28147;47.520;18.920;2023-09-12T01:13:03;98264.44;;;24.50;43.45
42519;BME280;28147;47.520;18.920;2023-09-12T01:15:28;98266.00;;;24.60;42.97
42519;BME280;28147;47.520;18.920;2023-09-12T01:17:54;98264.69;;;24.66;43.54
42519;BME280;28147;47.520;18.920;2023-09-12T01:20:24;98269.97;;;24.71;43.63
42519;BME280;28147;47.520;18.920;2023-09-12T01:25:58;98261.00;;;24.32;44.34
42519;BME280;28147;47.520;18.920;2023-09-12T01:28:31;98262.91;;;24.32;44.39
42519;BME280;28147;47.520;18.920;2023-09-12T01:31:00;98265.38;;;24.16;44.60
42519;BME280;28147;47.520;18.920;2023-09-12T01:33:26;98258.94;;;24.20;44.57
42519;BME280;28147;47.520;18.920;2023-09-12T01:35:52;98255.13;;;24.21;44.36
42519;BME280;28147;47.520;18.920;2023-09-12T01:38:18;98254.34;;;24.50;43.07
42519;BME280;28147;47.520;18.920;2023-09-12T01:40:47;98254.44;;;24.33;44.27
42519;BME280;28147;47.520;18.920;2023-09-12T01:43:14;98257.63;;;24.44;43.83
42519;BME280;28147;47.520;18.920;2023-09-12T01:45:40;98260.31;;;24.06;44.63
42519;BME280;28147;47.520;18.920;2023-09-12T01:48:06;98261.91;;;24.07;44.54
42519;BME280;28147;47.520;18.920;2023-09-12T01:50:33;98250.53;;;24.13;44.90
42519;BME280;28147;47.520;18.920;2023-09-12T01:52:59;98262.84;;;24.11;45.17
42519;BME280;28147;47.520;18.920;2023-09-12T01:55:26;98259.28;;;24.19;45.09
42519;BME280;28147;47.520;18.920;2023-09-12T01:57:51;98261.41;;;24.04;45.02
42519;BME280;28147;47.520;18.920;2023-09-12T02:00:21;98262.22;;;24.05;45.10
42519;BME280;28147;47.520;18.920;2023-09-12T02:02:47;98265.16;;;23.91;45.37
42519;BME280;28147;47.520;18.920;2023-09-12T02:05:17;98265.97;;;23.83;45.36
42519;BME280;28147;47.520;18.920;2023-09-12T02:07:45;98265.31;;;23.86;45.64
42519;BME280;28147;47.520;18.920;2023-09-12T02:10:11;98270.28;;;23.84;45.27
42519;BME280;28147;47.520;18.920;2023-09-12T02:12:36;98275.88;;;23.88;45.51
42519;BME280;28147;47.520;18.920;2023-09-12T02:15:02;98268.25;;;23.72;45.84
42519;BME280;28147;47.520;18.920;2023-09-12T02:17:28;98276.34;;;23.64;45.72
42519;BME280;28147;47.520;18.920;2023-09-12T02:19:53;98273.97;;;23.79;45.18
42519;BME280;28147;47.520;18.920;2023-09-12T02:22:19;98265.19;;;23.74;45.02
42519;BME280;28147;47.520;18.920;2023-09-12T02:24:44;98274.13;;;23.66;45.55
42519;BME280;28147;47.520;18.920;2023-09-12T02:27:09;98281.69;;;23.69;45.88
42519;BME280;28147;47.520;18.920;2023-09-12T02:29:35;98269.19;;;23.76;45.72
42519;BME280;28147;47.520;18.920;2023-09-12T02:32:00;98276.06;;;23.74;46.00
42519;BME280;28147;47.520;18.920;2023-09-12T02:34:26;98276.34;;;23.64;45.14
42519;BME280;28147;47.520;18.920;2023-09-12T02:36:51;98269.81;;;23.56;45.19
42519;BME280;28147;47.520;18.920;2023-09-12T02:39:17;98279.41;;;23.45;46.28
42519;BME280;28147;47.520;18.920;2023-09-12T02:41:42;98276.41;;;23.46;46.46
42519;BME280;28147;47.520;18.920;2023-09-12T02:44:08;98272.56;;;23.47;46.57
42519;BME280;28147;47.520;18.920;2023-09-12T02:46:33;98280.53;;;23.44;46.32
42519;BME280;28147;47.520;18.920;2023-09-12T02:48:59;98281.03;;;23.46;46.11
42519;BME280;28147;47.520;18.920;2023-09-12T02:51:28;98266.16;;;23.26;46.48
42519;BME280;28147;47.520;18.920;2023-09-12T02:53:53;98284.41;;;23.34;46.50
42519;BME280;28147;47.520;18.920;2023-09-12T02:56:19;98280.88;;;23.34;46.38
42519;BME280;28147;47.520;18.920;2023-09-12T02:58:46;98277.69;;;23.31;46.16
42519;BME280;28147;47.520;18.920;2023-09-12T03:01:18;98269.69;;;23.35;46.06
42519;BME280;28147;47.520;18.920;2023-09-12T03:03:45;98264.25;;;23.52;45.53
42519;BME280;28147;47.520;18.920;2023-09-12T03:06:12;98263.28;;;23.57;45.39
42519;BME280;28147;47.520;18.920;2023-09-12T03:08:39;98267.13;;;23.47;46.04
42519;BME280;28147;47.520;18.920;2023-09-12T03:11:04;98265.03;;;23.62;45.29
42519;BME280;28147;47.520;18.920;2023-09-12T03:13:33;98264.06;;;23.58;45.62
42519;BME280;28147;47.520;18.920;2023-09-12T03:15:58;98260.88;;;23.47;45.93
42519;BME280;28147;47.520;18.920;2023-09-12T03:18:24;98269.53;;;23.49;46.31
42519;BME280;28147;47.520;18.920;2023-09-12T03:20:49;98265.03;;;23.44;46.23
42519;BME280;28147;47.520;18.920;2023-09-12T03:23:15;98265.03;;;23.44;46.09
42519;BME280;28147;47.520;18.920;2023-09-12T03:25:40;98259.28;;;23.37;46.02
42519;BME280;28147;47.520;18.920;2023-09-12T03:28:06;98271.47;;;23.22;46.85
42519;BME280;28147;47.520;18.920;2023-09-12T03:30:36;98270.63;;;23.57;46.04
42519;BME280;28147;47.520;18.920;2023-09-12T03:33:02;98274.94;;;23.40;45.90
42519;BME280;28147;47.520;18.920;2023-09-12T03:35:28;98278.81;;;23.30;45.92
42519;BME280;28147;47.520;18.920;2023-09-12T03:37:54;98278.31;;;23.46;45.73
42519;BME280;28147;47.520;18.920;2023-09-12T03:40:20;98276.38;;;23.29;46.12
42519;BME280;28147;47.520;18.920;2023-09-12T03:42:45;98282.00;;;23.41;45.38
42519;BME280;28147;47.520;18.920;2023-09-12T03:45:11;98282.78;;;23.33;46.22
42519;BME280;28147;47.520;18.920;2023-09-12T03:47:36;98278.16;;;23.25;46.50
42519;BME280;28147;47.520;18.920;2023-09-12T03:50:02;98281.84;;;23.12;46.51
42519;BME280;28147;47.520;18.920;2023-09-12T03:52:28;98282.16;;;23.19;46.45
42519;BME280;28147;47.520;18.920;2023-09-12T03:54:53;98275.44;;;23.25;46.67
42519;BME280;28147;47.520;18.920;2023-09-12T03:57:19;98271.13;;;23.06;46.79
42519;BME280;28147;47.520;18.920;2023-09-12T03:59:44;98280.22;;;23.02;46.82
42519;BME280;28147;47.520;18.920;2023-09-12T04:02:12;98272.25;;;22.97;47.41
42519;BME280;28147;47.520;18.920;2023-09-12T04:04:37;98275.59;;;23.02;46.66
42519;BME280;28147;47.520;18.920;2023-09-12T04:07:03;98277.16;;;22.95;47.79
42519;BME280;28147;47.520;18.920;2023-09-12T04:09:28;98286.06;;;22.87;47.79
42519;BME280;28147;47.520;18.920;2023-09-12T04:11:54;98286.44;;;22.94;47.31
42519;BME280;28147;47.520;18.920;2023-09-12T04:14:20;98283.56;;;22.99;47.47
42519;BME280;28147;47.520;18.920;2023-09-12T04:16:46;98285.34;;;23.03;47.03
42519;BME280;28147;47.520;18.920;2023-09-12T04:19:13;98287.41;;;23.06;46.55
42519;BME280;28147;47.520;18.920;2023-09-12T04:21:38;98294.13;;;23.18;45.88
42519;BME280;28147;47.520;18.920;2023-09-12T04:24:04;98291.06;;;23.11;46.12
42519;BME280;28147;47.520;18.920;2023-09-12T04:26:30;98297.34;;;23.11;46.45
42519;BME280;28147;47.520;18.920;2023-09-12T04:28:55;98298.44;;;23.10;46.73
42519;BME280;28147;47.520;18.920;2023-09-12T04:31:20;98297.47;;;22.97;47.63
42519;BME280;28147;47.520;18.920;2023-09-12T04:33:46;98293.00;;;23.10;46.99
42519;BME280;28147;47.520;18.920;2023-09-12T04:36:11;98298.94;;;23.03;47.31
42519;BME280;28147;47.520;18.920;2023-09-12T04:38:36;98298.59;;;23.05;47.21
42519;BME280;28147;47.520;18.920;2023-09-12T04:41:02;98299.09;;;23.07;47.11
42519;BME280;28147;47.520;18.920;2023-09-12T04:43:31;98292.38;;;23.22;47.17
42519;BME280;28147;47.520;18.920;2023-09-12T04:45:56;98304.34;;;23.29;47.12
42519;BME280;28147;47.520;18.920;2023-09-12T04:48:22;98300.34;;;23.44;46.80
42519;BME280;28147;47.520;18.920;2023-09-12T04:50:47;98310.44;;;23.61;46.58
42519;BME280;28147;47.520;18.920;2023-09-12T04:53:13;98301.94;;;23.63;46.70
42519;BME280;28147;47.520;18.920;2023-09-12T04:55:40;98297.44;;;23.93;45.86
42519;BME280;28147;47.520;18.920;2023-09-12T04:58:05;98306.22;;;24.07;45.82
42519;BME280;28147;47.520;18.920;2023-09-12T05:00:32;98306.63;;;24.26;45.49
42519;BME280;28147;47.520;18.920;2023-09-12T05:02:58;98303.91;;;24.26;46.06
42519;BME280;28147;47.520;18.920;2023-09-12T05:05:24;98302.06;;;24.57;45.54
42519;BME280;28147;47.520;18.920;2023-09-12T05:07:50;98299.56;;;24.72;45.07
42519;BME280;28147;47.520;18.920;2023-09-12T05:10:16;98312.38;;;24.72;45.19
42519;BME280;28147;47.520;18.920;2023-09-12T05:12:42;98294.44;;;24.41;45.87
42519;BME280;28147;47.520;18.920;2023-09-12T05:15:07;98307.31;;;24.62;45.87
42519;BME280;28147;47.520;18.920;2023-09-12T05:17:33;98305.81;;;24.73;46.11
42519;BME280;28147;47.520;18.920;2023-09-12T05:19:58;98304.50;;;24.79;45.98
42519;BME280;28147;47.520;18.920;2023-09-12T05:22:24;98308.75;;;24.89;46.00
42519;BME280;28147;47.520;18.920;2023-09-12T05:24:49;98302.75;;;25.04;45.96
42519;BME280;28147;47.520;18.920;2023-09-12T05:27:15;98307.22;;;25.00;46.63
42519;BME280;28147;47.520;18.920;2023-09-12T05:29:40;98300.31;;;25.32;45.99
42519;BME280;28147;47.520;18.920;2023-09-12T05:32:05;98312.19;;;25.69;45.19
42519;BME280;28147;47.520;18.920;2023-09-12T05:34:31;98312.78;;;26.20;44.12
42519;BME280;28147;47.520;18.920;2023-09-12T05:36:57;98317.50;;;26.44;44.03
42519;BME280;28147;47.520;18.920;2023-09-12T05:39:22;98312.63;;;26.62;43.95
42519;BME280;28147;47.520;18.920;2023-09-12T05:41:49;98325.59;;;26.78;43.18
42519;BME280;28147;47.520;18.920;2023-09-12T05:44:14;98318.53;;;26.89;43.54
42519;BME280;28147;47.520;18.920;2023-09-12T05:46:45;98316.13;;;27.00;43.43
42519;BME280;28147;47.520;18.920;2023-09-12T05:49:11;98328.66;;;27.25;43.51
42519;BME280;28147;47.520;18.920;2023-09-12T05:51:37;98332.56;;;26.75;43.97
42519;BME280;28147;47.520;18.920;2023-09-12T05:54:02;98333.44;;;27.04;43.83
42519;BME280;28147;47.520;18.920;2023-09-12T05:56:28;98328.09;;;26.95;44.40
42519;BME280;28147;47.520;18.920;2023-09-12T05:58:54;98312.88;;;27.47;43.61
42519;BME280;28147;47.520;18.920;2023-09-12T06:01:19;98325.13;;;27.53;44.55
42519;BME280;28147;47.520;18.920;2023-09-12T06:03:45;98333.56;;;27.88;43.80
42519;BME280;28147;47.520;18.920;2023-09-12T06:06:10;98342.03;;;27.83;44.15
42519;BME280;28147;47.520;18.920;2023-09-12T06:08:37;98331.56;;;28.01;44.21
42519;BME280;28147;47.520;18.920;2023-09-12T06:11:02;98327.63;;;28.14;43.94
42519;BME280;28147;47.520;18.920;2023-09-12T06:13:28;98337.09;;;28.32;44.37
42519;BME280;28147;47.520;18.920;2023-09-12T06:15:53;98333.00;;;28.10;44.83
42519;BME280;28147;47.520;18.920;2023-09-12T06:18:18;98336.66;;;27.46;45.40
42519;BME280;28147;47.520;18.920;2023-09-12T06:20:45;98338.22;;;26.95;46.02
42519;BME280;28147;47.520;18.920;2023-09-12T06:23:10;98334.97;;;27.82;44.68
42519;BME280;28147;47.520;18.920;2023-09-12T06:25:35;98343.00;;;28.19;44.25
42519;BME280;28147;47.520;18.920;2023-09-12T06:28:01;98337.69;;;28.26;43.28
42519;BME280;28147;47.520;18.920;2023-09-12T06:30:26;98340.59;;;28.17;42.43
42519;BME280;28147;47.520;18.920;2023-09-12T06:32:52;98343.22;;;27.98;41.60
42519;BME280;28147;47.520;18.920;2023-09-12T06:35:17;98345.19;;;28.13;42.51
42519;BME280;28147;47.520;18.920;2023-09-12T06:37:43;98347.97;;;28.45;40.86
42519;BME280;28147;47.520;18.920;2023-09-12T06:40:09;98339.34;;;28.14;38.88
42519;BME280;28147;47.520;18.920;2023-09-12T06:42:35;98346.72;;;28.26;38.43
42519;BME280;28147;47.520;18.920;2023-09-12T06:45:00;98349.75;;;27.93;40.15
42519;BME280;28147;47.520;18.920;2023-09-12T06:47:26;98347.41;;;28.07;39.45
42519;BME280;28147;47.520;18.920;2023-09-12T06:49:51;98346.13;;;27.89;38.90
42519;BME280;28147;47.520;18.920;2023-09-12T06:52:16;98349.06;;;28.12;39.27
42519;BME280;28147;47.520;18.920;2023-09-12T06:54:42;98346.06;;;28.45;37.35
42519;BME280;28147;47.520;18.920;2023-09-12T06:57:07;98352.13;;;28.70;36.39
42519;BME280;28147;47.520;18.920;2023-09-12T06:59:33;98349.69;;;28.49;37.14
42519;BME280;28147;47.520;18.920;2023-09-12T07:01:58;98350.72;;;28.45;35.91
42519;BME280;28147;47.520;18.920;2023-09-12T07:04:24;98356.59;;;28.94;36.22
42519;BME280;28147;47.520;18.920;2023-09-12T07:06:49;98353.03;;;28.43;36.99
42519;BME280;28147;47.520;18.920;2023-09-12T07:09:16;98352.13;;;28.70;36.88
42519;BME280;28147;47.520;18.920;2023-09-12T07:11:42;98356.19;;;28.76;36.47
42519;BME280;28147;47.520;18.920;2023-09-12T07:14:08;98363.63;;;28.60;36.14
42519;BME280;28147;47.520;18.920;2023-09-12T07:16:35;98359.00;;;29.12;36.27
42519;BME280;28147;47.520;18.920;2023-09-12T07:19:01;98365.19;;;29.44;36.52
42519;BME280;28147;47.520;18.920;2023-09-12T07:21:26;98361.81;;;29.15;34.72
42519;BME280;28147;47.520;18.920;2023-09-12T07:23:52;98359.19;;;28.71;35.80
42519;BME280;28147;47.520;18.920;2023-09-12T07:26:17;98348.84;;;29.31;35.82
42519;BME280;28147;47.520;18.920;2023-09-12T07:28:43;98356.63;;;29.10;35.71
42519;BME280;28147;47.520;18.920;2023-09-12T07:31:08;98359.44;;;29.14;35.93
42519;BME280;28147;47.520;18.920;2023-09-12T07:33:34;98350.72;;;29.27;36.09
42519;BME280;28147;47.520;18.920;2023-09-12T07:35:59;98361.94;;;28.71;35.97
42519;BME280;28147;47.520;18.920;2023-09-12T07:38:25;98356.97;;;29.08;36.01
42519;BME280;28147;47.520;18.920;2023-09-12T07:40:51;98369.25;;;29.15;36.16
42519;BME280;28147;47.520;18.920;2023-09-12T07:43:17;98363.59;;;29.07;37.34
42519;BME280;28147;47.520;18.920;2023-09-12T07:45:42;98360.56;;;29.28;36.01
42519;BME280;28147;47.520;18.920;2023-09-12T07:48:09;98364.63;;;29.93;35.38
42519;BME280;28147;47.520;18.920;2023-09-12T07:50:36;98361.03;;;29.69;34.84
42519;BME280;28147;47.520;18.920;2023-09-12T07:53:04;98354.59;;;30.20;35.55
42519;BME280;28147;47.520;18.920;2023-09-12T07:55:29;98357.47;;;30.08;34.90
42519;BME280;28147;47.520;18.920;2023-09-12T07:57:59;98365.53;;;30.16;34.52
42519;BME280;28147;47.520;18.920;2023-09-12T08:00:25;98349.97;;;29.85;33.80
42519;BME280;28147;47.520;18.920;2023-09-12T08:02:50;98355.28;;;29.74;33.89
42519;BME280;28147;47.520;18.920;2023-09-12T08:05:16;98360.25;;;30.30;33.57
42519;BME280;28147;47.520;18.920;2023-09-12T08:07:41;98356.06;;;30.60;32.50
42519;BME280;28147;47.520;18.920;2023-09-12T08:10:07;98356.91;;;30.18;32.09
42519;BME280;28147;47.520;18.920;2023-09-12T08:12:32;98353.41;;;29.78;32.75
42519;BME280;28147;47.520;18.920;2023-09-12T08:14:58;98350.44;;;30.75;31.82
42519;BME280;28147;47.520;18.920;2023-09-12T08:17:25;98356.13;;;30.63;31.48
42519;BME280;28147;47.520;18.920;2023-09-12T08:19:51;98352.91;;;30.81;31.48
42519;BME280;28147;47.520;18.920;2023-09-12T08:22:16;98356.97;;;30.90;30.74
42519;BME280;28147;47.520;18.920;2023-09-12T08:24:42;98355.44;;;31.46;30.02
42519;BME280;28147;47.520;18.920;2023-09-12T08:27:07;98359.72;;;30.90;30.54
42519;BME280;28147;47.520;18.920;2023-09-12T08:29:35;98366.09;;;30.98;30.32
42519;BME280;28147;47.520;18.920;2023-09-12T08:32:01;98365.09;;;31.66;30.36
42519;BME280;28147;47.520;18.920;2023-09-12T08:34:26;98363.13;;;31.63;30.04
42519;BME280;28147;47.520;18.920;2023-09-12T08:36:52;98364.03;;;32.08;29.75
42519;BME280;28147;47.520;18.920;2023-09-12T08:39:24;98369.84;;;32.00;30.23
42519;BME280;28147;47.520;18.920;2023-09-12T08:41:50;98372.75;;;32.51;29.57
42519;BME280;28147;47.520;18.920;2023-09-12T08:44:16;98366.78;;;31.74;30.85
42519;BME280;28147;47.520;18.920;2023-09-12T08:46:42;98364.69;;;32.32;30.86
42519;BME280;28147;47.520;18.920;2023-09-12T08:49:09;98360.22;;;31.83;30.05
42519;BME280;28147;47.520;18.920;2023-09-12T08:51:37;98373.69;;;32.29;30.52
42519;BME280;28147;47.520;18.920;2023-09-12T08:54:03;98373.88;;;32.06;29.67
42519;BME280;28147;47.520;18.920;2023-09-12T08:56:29;98370.09;;;32.21;29.07
42519;BME280;28147;47.520;18.920;2023-09-12T08:58:56;98369.47;;;32.83;28.57
42519;BME280;28147;47.520;18.920;2023-09-12T09:01:23;98363.91;;;32.76;29.09
42519;BME280;28147;47.520;18.920;2023-09-12T09:03:53;98369.78;;;32.30;29.66
42519;BME280;28147;47.520;18.920;2023-09-12T09:06:19;98376.78;;;32.61;28.69
42519;BME280;28147;47.520;18.920;2023-09-12T09:08:48;98366.97;;;33.18;27.20
42519;BME280;28147;47.520;18.920;2023-09-12T09:11:13;98378.03;;;33.22;26.92
42519;BME280;28147;47.520;18.920;2023-09-12T09:13:39;98373.13;;;32.50;27.58
42519;BME280;28147;47.520;18.920;2023-09-12T09:18:55;98367.41;;;32.28;28.98
42519;BME280;28147;47.520;18.920;2023-09-12T09:21:23;98362.63;;;32.62;28.20
42519;BME280;28147;47.520;18.920;2023-09-12T09:23:53;98364.69;;;32.76;27.98
42519;BME280;28147;47.520;18.920;2023-09-12T09:26:19;98351.47;;;33.65;28.02
42519;BME280;28147;47.520;18.920;2023-09-12T09:28:45;98357.59;;;32.75;27.19
42519;BME280;28147;47.520;18.920;2023-09-12T09:31:12;98371.94;;;32.10;28.42
42519;BME280;28147;47.520;18.920;2023-09-12T09:33:39;98371.50;;;32.89;27.45
42519;BME280;28147;47.520;18.920;2023-09-12T09:36:07;98367.03;;;32.74;28.19
42519;BME280;28147;47.520;18.920;2023-09-12T09:38:34;98367.56;;;32.05;27.91
42519;BME280;28147;47.520;18.920;2023-09-12T09:41:04;98369.84;;;32.37;28.20
42519;BME280;28147;47.520;18.920;2023-09-12T09:43:30;98379.28;;;32.80;28.50
42519;BME280;28147;47.520;18.920;2023-09-12T09:45:57;98372.56;;;31.96;29.45
42519;BME280;28147;47.520;18.920;2023-09-12T09:48:25;98366.56;;;31.87;27.58
42519;BME280;28147;47.520;18.920;2023-09-12T09:51:03;98375.31;;;31.96;28.10
42519;BME280;28147;47.520;18.920;2023-09-12T09:53:32;98374.69;;;32.10;27.93
42519;BME280;28147;47.520;18.920;2023-09-12T09:56:08;98367.63;;;32.94;26.69
42519;BME280;28147;47.520;18.920;2023-09-12T09:58:34;98362.56;;;32.18;27.71
42519;BME280;28147;47.520;18.920;2023-09-12T10:01:01;98368.44;;;32.13;27.89
42519;BME280;28147;47.520;18.920;2023-09-12T10:03:28;98366.69;;;33.34;26.89
42519;BME280;28147;47.520;18.920;2023-09-12T10:05:56;98365.31;;;33.76;26.43
42519;BME280;28147;47.520;18.920;2023-09-12T10:08:23;98359.59;;;33.40;25.78
42519;BME280;28147;47.520;18.920;2023-09-12T10:10:51;98357.63;;;33.41;25.10
42519;BME280;28147;47.520;18.920;2023-09-12T10:13:18;98357.28;;;32.87;25.72
42519;BME280;28147;47.520;18.920;2023-09-12T10:15:47;98348.00;;;33.97;25.50
42519;BME280;28147;47.520;18.920;2023-09-12T10:18:17;98354.56;;;33.46;25.73
42519;BME280;28147;47.520;18.920;2023-09-12T10:20:50;98348.13;;;34.36;23.94
42519;BME280;28147;47.520;18.920;2023-09-12T10:23:29;98349.28;;;34.28;24.71
42519;BME280;28147;47.520;18.920;2023-09-12T10:25:56;98342.16;;;34.24;24.26
42519;BME280;28147;47.520;18.920;2023-09-12T10:28:23;98342.59;;;34.97;24.63
42519;BME280;28147;47.520;18.920;2023-09-12T10:30:50;98339.06;;;34.50;24.59
42519;BME280;28147;47.520;18.920;2023-09-12T10:33:17;98339.31;;;33.84;25.06
42519;BME280;28147;47.520;18.920;2023-09-12T10:35:44;98346.47;;;33.12;25.98
42519;BME280;28147;47.520;18.920;2023-09-12T10:38:11;98342.09;;;33.92;24.55
42519;BME280;28147;47.520;18.920;2023-09-12T10:40:40;98348.41;;;33.88;25.11
42519;BME280;28147;47.520;18.920;2023-09-12T10:43:06;98341.84;;;34.57;25.30
42519;BME280;28147;47.520;18.920;2023-09-12T10:45:35;98331.91;;;34.03;24.91
42519;BME280;28147;47.520;18.920;2023-09-12T10:48:02;98337.31;;;33.81;25.32
42519;BME280;28147;47.520;18.920;2023-09-12T10:50:28;98339.09;;;33.34;25.25
42519;BME280;28147;47.520;18.920;2023-09-12T10:52:54;98339.06;;;33.27;25.05
42519;BME280;28147;47.520;18.920;2023-09-12T10:55:19;98343.31;;;33.17;25.23
42519;BME280;28147;47.520;18.920;2023-09-12T10:58:05;98346.72;;;33.59;26.16
42519;BME280;28147;47.520;18.920;2023-09-12T11:00:31;98344.38;;;32.99;25.12
42519;BME280;28147;47.520;18.920;2023-09-12T11:03:35;98333.81;;;33.04;25.76
42519;BME280;28147;47.520;18.920;2023-09-12T11:06:01;98328.31;;;33.08;25.79
42519;BME280;28147;47.520;18.920;2023-09-12T11:08:26;98324.94;;;33.43;25.98
42519;BME280;28147;47.520;18.920;2023-09-12T11:11:21;98338.06;;;33.67;25.95
42519;BME280;28147;47.520;18.920;2023-09-12T11:14:02;98323.47;;;33.67;25.18
42519;BME280;28147;47.520;18.920;2023-09-12T11:16:28;98332.03;;;33.44;25.39
42519;BME280;28147;47.520;18.920;2023-09-12T11:19:19;98326.31;;;33.92;24.77
42519;BME280;28147;47.520;18.920;2023-09-12T11:21:50;98327.88;;;33.86;24.89
42519;BME280;28147;47.520;18.920;2023-09-12T11:24:17;98321.03;;;33.48;25.19
42519;BME280;28147;47.520;18.920;2023-09-12T11:26:57;98334.94;;;32.48;25.25
42519;BME280;28147;47.520;18.920;2023-09-12T11:29:45;98325.44;;;32.93;25.40
42519;BME280;28147;47.520;18.920;2023-09-12T11:32:25;98334.66;;;33.15;25.19
42519;BME280;28147;47.520;18.920;2023-09-12T11:34:52;98322.16;;;32.74;25.86
42519;BME280;28147;47.520;18.920;2023-09-12T11:37:25;98324.44;;;33.23;25.79
42519;BME280;28147;47.520;18.920;2023-09-12T11:39:51;98316.81;;;33.89;24.05
42519;BME280;28147;47.520;18.920;2023-09-12T11:42:18;98308.25;;;34.37;23.45
42519;BME280;28147;47.520;18.920;2023-09-12T11:44:43;98304.94;;;33.60;24.55
42519;BME280;28147;47.520;18.920;2023-09-12T11:47:12;98307.75;;;33.89;24.75
42519;BME280;28147;47.520;18.920;2023-09-12T11:49:39;98301.81;;;33.76;25.07
42519;BME280;28147;47.520;18.920;2023-09-12T11:52:13;98311.09;;;33.36;24.76
42519;BME280;28147;47.520;18.920;2023-09-12T11:54:40;98313.06;;;33.35;24.85
42519;BME280;28147;47.520;18.920;2023-09-12T11:57:09;98311.06;;;33.29;24.40
42519;BME280;28147;47.520;18.920;2023-09-12T11:59:39;98307.91;;;33.27;24.23
42519;BME280;28147;47.520;18.920;2023-09-12T12:02:09;98304.81;;;33.39;24.42
42519;BME280;28147;47.520;18.920;2023-09-12T12:04:35;98303.84;;;33.06;24.48
42519;BME280;28147;47.520;18.920;2023-09-12T12:07:03;98294.28;;;33.66;23.99
42519;BME280;28147;47.520;18.920;2023-09-12T12:09:29;98307.84;;;33.16;23.82
42519;BME280;28147;47.520;18.920;2023-09-12T12:11:55;98297.69;;;32.72;24.03
42519;BME280;28147;47.520;18.920;2023-09-12T12:14:25;98302.75;;;32.63;24.55
42519;BME280;28147;47.520;18.920;2023-09-12T12:16:52;98295.28;;;33.29;24.44
42519;BME280;28147;47.520;18.920;2023-09-12T12:19:17;98297.41;;;32.88;24.64
42519;BME280;28147;47.520;18.920;2023-09-12T12:21:43;98298.13;;;32.74;24.20
42519;BME280;28147;47.520;18.920;2023-09-12T12:24:13;98297.19;;;33.07;23.69
42519;BME280;28147;47.520;18.920;2023-09-12T12:26:43;98294.53;;;33.32;23.24
42519;BME280;28147;47.520;18.920;2023-09-12T12:29:09;98288.09;;;33.10;24.00
42519;BME280;28147;47.520;18.920;2023-09-12T12:31:35;98290.59;;;33.37;23.49
42519;BME280;28147;47.520;18.920;2023-09-12T12:34:01;98287.53;;;32.83;24.13
42519;BME280;28147;47.520;18.920;2023-09-12T12:36:26;98278.78;;;33.40;23.72
42519;BME280;28147;47.520;18.920;2023-09-12T12:38:52;98271.22;;;33.26;23.95
42519;BME280;28147;47.520;18.920;2023-09-12T12:41:26;98263.66;;;33.05;23.99
42519;BME280;28147;47.520;18.920;2023-09-12T12:43:53;98262.47;;;33.06;23.63
42519;BME280;28147;47.520;18.920;2023-09-12T12:46:20;98270.84;;;33.28;23.87
42519;BME280;28147;47.520;18.920;2023-09-12T12:48:47;98264.28;;;32.81;24.08
42519;BME280;28147;47.520;18.920;2023-09-12T12:53:47;98262.72;;;32.83;23.67
42519;BME280;28147;47.520;18.920;2023-09-12T12:56:14;98265.34;;;32.65;23.89